sensor_id;sensor_type;location;lat;lon;timestamp;temperature;humidity
21417;DHT22;10869;52.238;10.716;2022-11-20T05:08:29;-2.20;99.90
21417;DHT22;10869;52.238;10.716;2022-11-20T05:11:09;-2.20;99.90
21417;DHT22;10869;52.238;10.716;2022-11-20T05:16:57;-2.30;99.90
21417;DHT22;10869;52.238;10.716;2022-11-20T05:19:22;-2.30;99.90
21417;DHT22;10869;52.238;10.716;2022-11-20T05:21:48;-2.30;99.90
21417;DHT22;10869;52.238;10.716;2022-11-20T05:24:14;-2.30;99.90
21417;DHT22;10869;52.238;10.716;2022-11-20T05:26:40;-2.30;99.90
21417;DHT22;10869;52.238;10.716;2022-11-20T05:29:05;-2.30;99.90
21417;DHT22;10869;52.238;10.716;2022-11-20T05:31:31;-2.30;99.90
21417;DHT22;10869;52.238;10.716;2022-11-20T05:33:57;-2.30;99.90
21417;DHT22;10869;52.238;10.716;2022-11-20T05:36:23;-2.30;99.90
21417;DHT22;10869;52.238;10.716;2022-11-20T05:38:49;-2.30;99.90
21417;DHT22;10869;52.238;10.716;2022-11-20T05:41:16;-2.20;99.90
21417;DHT22;10869;52.238;10.716;2022-11-20T05:43:45;-2.20;99.90
21417;DHT22;10869;52.238;10.716;2022-11-20T05:46:13;-2.30;99.90
21417;DHT22;10869;52.238;10.716;2022-11-20T05:48:41;-2.20;99.90
21417;DHT22;10869;52.238;10.716;2022-11-20T05:51:09;-2.20;99.90
21417;DHT22;10869;52.238;10.716;2022-11-20T05:53:36;-2.10;99.90
21417;DHT22;10869;52.238;10.716;2022-11-20T05:58:30;-2.10;99.90
21417;DHT22;10869;52.238;10.716;2022-11-20T06:01:13;-2.10;99.90
21417;DHT22;10869;52.238;10.716;2022-11-20T06:03:40;-2.00;99.90
21417;DHT22;10869;52.238;10.716;2022-11-20T06:06:06;-2.00;99.90
21417;DHT22;10869;52.238;10.716;2022-11-20T06:08:32;-2.00;99.90
21417;DHT22;10869;52.238;10.716;2022-11-20T06:10:58;-2.00;99.90
21417;DHT22;10869;52.238;10.716;2022-11-20T06:13:28;-1.90;99.90
21417;DHT22;10869;52.238;10.716;2022-11-20T06:15:53;-1.90;99.90
21417;DHT22;10869;52.238;10.716;2022-11-20T06:18:20;-1.80;99.90
21417;DHT22;10869;52.238;10.716;2022-11-20T06:20:47;-1.80;99.90
21417;DHT22;10869;52.238;10.716;2022-11-20T06:23:13;-1.80;99.90
21417;DHT22;10869;52.238;10.716;2022-11-20T06:25:40;-1.80;99.90
21417;DHT22;10869;52.238;10.716;2022-11-20T06:28:06;-1.70;99.90
21417;DHT22;10869;52.238;10.716;2022-11-20T06:30:32;-1.70;99.90
21417;DHT22;10869;52.238;10.716;2022-11-20T06:32:58;-1.70;99.90
21417;DHT22;10869;52.238;10.716;2022-11-20T06:35:24;-1.60;99.90
21417;DHT22;10869;52.238;10.716;2022-11-20T06:37:50;-1.60;99.90
21417;DHT22;10869;52.238;10.716;2022-11-20T06:40:15;-1.60;99.90
21417;DHT22;10869;52.238;10.716;2022-11-20T06:42:41;-1.50;99.90
21417;DHT22;10869;52.238;10.716;2022-11-20T06:45:08;-1.50;99.90
21417;DHT22;10869;52.238;10.716;2022-11-20T06:47:34;-1.50;99.90
21417;DHT22;10869;52.238;10.716;2022-11-20T06:53:22;-1.50;99.90
21417;DHT22;10869;52.238;10.716;2022-11-20T06:55:51;-1.50;99.90
21417;DHT22;10869;52.238;10.716;2022-11-20T06:58:21;-1.50;99.90
21417;DHT22;10869;52.238;10.716;2022-11-20T07:00:46;-1.40;99.90
21417;DHT22;10869;52.238;10.716;2022-11-20T07:03:12;-1.50;99.90
21417;DHT22;10869;52.238;10.716;2022-11-20T07:05:39;-1.50;99.90
21417;DHT22;10869;52.238;10.716;2022-11-20T07:08:05;-1.40;99.90
21417;DHT22;10869;52.238;10.716;2022-11-20T07:13:53;-1.40;99.90
21417;DHT22;10869;52.238;10.716;2022-11-20T07:19:40;-1.40;99.90
21417;DHT22;10869;52.238;10.716;2022-11-20T08:15:08;-1.10;99.90
21417;DHT22;10869;52.238;10.716;2022-11-20T08:17:34;-1.10;99.90
21417;DHT22;10869;52.238;10.716;2022-11-20T08:23:22;-1.10;99.90
21417;DHT22;10869;52.238;10.716;2022-11-20T08:25:50;-1.10;99.90
21417;DHT22;10869;52.238;10.716;2022-11-20T08:28:16;-1.10;99.90
21417;DHT22;10869;52.238;10.716;2022-11-20T08:30:42;-1.00;99.90
21417;DHT22;10869;52.238;10.716;2022-11-20T08:36:33;-1.00;99.90
21417;DHT22;10869;52.238;10.716;2022-11-20T08:42:21;-0.90;99.90
21417;DHT22;10869;52.238;10.716;2022-11-20T08:44:47;-0.90;99.90
21417;DHT22;10869;52.238;10.716;2022-11-20T08:47:13;-0.90;99.90
21417;DHT22;10869;52.238;10.716;2022-11-20T08:49:39;-0.90;99.90
21417;DHT22;10869;52.238;10.716;2022-11-20T08:52:05;-0.90;99.90
21417;DHT22;10869;52.238;10.716;2022-11-20T08:54:31;-0.90;99.90
21417;DHT22;10869;52.238;10.716;2022-11-20T08:56:56;-0.90;99.90
21417;DHT22;10869;52.238;10.716;2022-11-20T08:59:25;-0.90;99.90
21417;DHT22;10869;52.238;10.716;2022-11-20T09:01:51;-0.80;99.90
21417;DHT22;10869;52.238;10.716;2022-11-20T09:04:17;-0.80;99.90
21417;DHT22;10869;52.238;10.716;2022-11-20T09:06:42;-0.80;99.90
21417;DHT22;10869;52.238;10.716;2022-11-20T09:09:08;-0.70;99.90
21417;DHT22;10869;52.238;10.716;2022-11-20T09:11:34;-0.70;99.90
21417;DHT22;10869;52.238;10.716;2022-11-20T09:14:01;-0.70;99.90
21417;DHT22;10869;52.238;10.716;2022-11-20T09:16:28;-0.70;99.90
21417;DHT22;10869;52.238;10.716;2022-11-20T09:18:53;-0.70;99.90
21417;DHT22;10869;52.238;10.716;2022-11-20T09:21:19;-0.70;99.90
21417;DHT22;10869;52.238;10.716;2022-11-20T09:27:07;-0.70;99.90
21417;DHT22;10869;52.238;10.716;2022-11-20T09:29:33;-0.60;99.90
21417;DHT22;10869;52.238;10.716;2022-11-20T09:31:59;-0.60;99.90
21417;DHT22;10869;52.238;10.716;2022-11-20T09:34:24;-0.60;99.90
21417;DHT22;10869;52.238;10.716;2022-11-20T09:36:50;-0.60;99.90
21417;DHT22;10869;52.238;10.716;2022-11-20T09:54:17;-0.30;99.90
21417;DHT22;10869;52.238;10.716;2022-11-20T09:57:08;-0.10;99.90
21417;DHT22;10869;52.238;10.716;2022-11-20T09:59:42;0.10;99.90
21417;DHT22;10869;52.238;10.716;2022-11-20T10:05:45;0.30;99.90
21417;DHT22;10869;52.238;10.716;2022-11-20T10:20:14;0.70;99.90
21417;DHT22;10869;52.238;10.716;2022-11-20T10:29:11;1.00;99.90
21417;DHT22;10869;52.238;10.716;2022-11-20T10:31:40;1.00;99.90
21417;DHT22;10869;52.238;10.716;2022-11-20T15:28:04;0.60;99.90
21417;DHT22;10869;52.238;10.716;2022-11-20T15:30:33;0.60;99.90
21417;DHT22;10869;52.238;10.716;2022-11-20T15:32:59;0.60;99.90
21417;DHT22;10869;52.238;10.716;2022-11-20T15:35:24;0.60;99.90
21417;DHT22;10869;52.238;10.716;2022-11-20T15:37:53;0.60;99.90
21417;DHT22;10869;52.238;10.716;2022-11-20T15:40:19;0.60;99.90
21417;DHT22;10869;52.238;10.716;2022-11-20T15:42:45;0.60;99.90
21417;DHT22;10869;52.238;10.716;2022-11-20T15:45:39;0.50;99.90
21417;DHT22;10869;52.238;10.716;2022-11-20T15:51:38;0.50;99.90
21417;DHT22;10869;52.238;10.716;2022-11-20T15:54:19;0.50;99.90
21417;DHT22;10869;52.238;10.716;2022-11-20T15:56:46;0.40;99.90
21417;DHT22;10869;52.238;10.716;2022-11-20T15:59:15;0.40;99.90
21417;DHT22;10869;52.238;10.716;2022-11-20T16:01:41;0.40;99.90
21417;DHT22;10869;52.238;10.716;2022-11-20T16:07:29;0.40;99.90
21417;DHT22;10869;52.238;10.716;2022-11-20T16:09:55;0.30;99.90
21417;DHT22;10869;52.238;10.716;2022-11-20T16:12:21;0.30;99.90
21417;DHT22;10869;52.238;10.716;2022-11-20T16:15:15;0.30;99.90
21417;DHT22;10869;52.238;10.716;2022-11-20T16:18:06;0.30;99.90
21417;DHT22;10869;52.238;10.716;2022-11-20T16:20:33;0.30;99.90
21417;DHT22;10869;52.238;10.716;2022-11-20T16:23:05;0.30;99.90
21417;DHT22;10869;52.238;10.716;2022-11-20T16:28:06;0.30;99.90
21417;DHT22;10869;52.238;10.716;2022-11-20T16:30:41;0.30;99.90
21417;DHT22;10869;52.238;10.716;2022-11-20T16:33:16;0.30;99.90
21417;DHT22;10869;52.238;10.716;2022-11-20T16:35:45;0.30;99.90
21417;DHT22;10869;52.238;10.716;2022-11-20T16:38:34;0.30;99.90
21417;DHT22;10869;52.238;10.716;2022-11-20T16:41:57;0.30;99.90
21417;DHT22;10869;52.238;10.716;2022-11-20T16:44:38;0.30;99.90
21417;DHT22;10869;52.238;10.716;2022-11-20T16:49:45;0.10;99.90
21417;DHT22;10869;52.238;10.716;2022-11-20T16:52:11;0.10;99.90
21417;DHT22;10869;52.238;10.716;2022-11-20T16:54:40;0.00;99.90
21417;DHT22;10869;52.238;10.716;2022-11-20T16:57:09;-0.10;99.90
21417;DHT22;10869;52.238;10.716;2022-11-20T16:59:38;-0.10;99.90
21417;DHT22;10869;52.238;10.716;2022-11-20T17:02:04;-0.20;99.90
21417;DHT22;10869;52.238;10.716;2022-11-20T17:04:30;-0.20;99.90
21417;DHT22;10869;52.238;10.716;2022-11-20T17:06:56;-0.30;99.90
21417;DHT22;10869;52.238;10.716;2022-11-20T17:09:22;-0.40;99.90
21417;DHT22;10869;52.238;10.716;2022-11-20T17:15:10;-0.50;99.90
21417;DHT22;10869;52.238;10.716;2022-11-20T17:20:59;-0.60;99.90
21417;DHT22;10869;52.238;10.716;2022-11-20T17:33:51;-0.90;99.90
21417;DHT22;10869;52.238;10.716;2022-11-20T17:36:20;-0.90;99.90
21417;DHT22;10869;52.238;10.716;2022-11-20T17:38:46;-0.90;99.90
21417;DHT22;10869;52.238;10.716;2022-11-20T17:41:18;-0.90;99.90
21417;DHT22;10869;52.238;10.716;2022-11-20T17:43:44;-0.80;99.90
21417;DHT22;10869;52.238;10.716;2022-11-20T17:46:31;-0.90;99.90
21417;DHT22;10869;52.238;10.716;2022-11-20T17:49:04;-0.80;99.90
21417;DHT22;10869;52.238;10.716;2022-11-20T17:51:38;-0.80;99.90
21417;DHT22;10869;52.238;10.716;2022-11-20T17:57:44;-0.90;99.90
21417;DHT22;10869;52.238;10.716;2022-11-20T18:04:02;-0.90;99.90
21417;DHT22;10869;52.238;10.716;2022-11-20T18:09:50;-1.00;99.90
21417;DHT22;10869;52.238;10.716;2022-11-20T18:12:16;-0.90;99.90
21417;DHT22;10869;52.238;10.716;2022-11-20T18:18:03;-0.90;99.90
21417;DHT22;10869;52.238;10.716;2022-11-20T18:20:29;-0.90;99.90
21417;DHT22;10869;52.238;10.716;2022-11-20T18:22:55;-1.00;99.90
21417;DHT22;10869;52.238;10.716;2022-11-20T18:28:45;-1.00;99.90
21417;DHT22;10869;52.238;10.716;2022-11-20T18:36:28;-1.10;99.90
21417;DHT22;10869;52.238;10.716;2022-11-20T18:42:12;-1.10;99.90
21417;DHT22;10869;52.238;10.716;2022-11-20T18:45:01;-1.20;99.90
21417;DHT22;10869;52.238;10.716;2022-11-20T18:47:35;-1.10;99.90
21417;DHT22;10869;52.238;10.716;2022-11-20T18:50:03;-1.10;99.90
21417;DHT22;10869;52.238;10.716;2022-11-20T18:52:32;-1.10;99.90
21417;DHT22;10869;52.238;10.716;2022-11-20T18:54:59;-1.10;99.90
21417;DHT22;10869;52.238;10.716;2022-11-20T18:57:27;-1.10;99.90
21417;DHT22;10869;52.238;10.716;2022-11-20T19:03:18;-1.10;99.90
21417;DHT22;10869;52.238;10.716;2022-11-20T19:05:47;-1.10;99.90
21417;DHT22;10869;52.238;10.716;2022-11-20T19:08:19;-1.10;99.90
21417;DHT22;10869;52.238;10.716;2022-11-20T19:10:44;-1.10;99.90
21417;DHT22;10869;52.238;10.716;2022-11-20T19:16:33;-1.00;99.90
21417;DHT22;10869;52.238;10.716;2022-11-20T19:19:00;-1.00;99.90
21417;DHT22;10869;52.238;10.716;2022-11-20T19:21:30;-1.00;99.90
21417;DHT22;10869;52.238;10.716;2022-11-20T19:23:57;-1.00;99.90
21417;DHT22;10869;52.238;10.716;2022-11-20T19:26:29;-0.90;99.90
21417;DHT22;10869;52.238;10.716;2022-11-20T19:28:55;-0.80;99.90
21417;DHT22;10869;52.238;10.716;2022-11-20T19:34:43;-0.70;99.90
21417;DHT22;10869;52.238;10.716;2022-11-20T19:37:12;-0.70;99.90
21417;DHT22;10869;52.238;10.716;2022-11-20T19:39:38;-0.60;99.90
21417;DHT22;10869;52.238;10.716;2022-11-20T19:45:25;-0.50;99.90
21417;DHT22;10869;52.238;10.716;2022-11-20T19:48:03;-0.50;99.90
21417;DHT22;10869;52.238;10.716;2022-11-20T19:53:14;-0.40;99.90
21417;DHT22;10869;52.238;10.716;2022-11-20T19:56:00;-0.40;99.90
21417;DHT22;10869;52.238;10.716;2022-11-20T19:58:30;-0.40;99.90
21417;DHT22;10869;52.238;10.716;2022-11-20T20:06:25;-0.30;99.90
21417;DHT22;10869;52.238;10.716;2022-11-20T20:09:09;-0.30;99.90
21417;DHT22;10869;52.238;10.716;2022-11-20T20:11:37;-0.20;99.90
21417;DHT22;10869;52.238;10.716;2022-11-20T20:17:28;-0.20;99.90
21417;DHT22;10869;52.238;10.716;2022-11-20T20:23:17;-0.10;99.90
21417;DHT22;10869;52.238;10.716;2022-11-20T20:25:47;-0.10;99.90
21417;DHT22;10869;52.238;10.716;2022-11-20T20:28:16;-0.10;99.90
21417;DHT22;10869;52.238;10.716;2022-11-20T20:30:45;0.00;99.90
21417;DHT22;10869;52.238;10.716;2022-11-20T20:33:22;0.00;99.90
21417;DHT22;10869;52.238;10.716;2022-11-20T20:35:51;0.00;99.90
21417;DHT22;10869;52.238;10.716;2022-11-20T20:38:17;0.00;99.90
21417;DHT22;10869;52.238;10.716;2022-11-20T20:40:47;0.00;99.90
21417;DHT22;10869;52.238;10.716;2022-11-20T20:46:43;0.00;99.90
21417;DHT22;10869;52.238;10.716;2022-11-20T20:49:14;0.00;99.90
21417;DHT22;10869;52.238;10.716;2022-11-20T20:51:43;0.00;99.90
21417;DHT22;10869;52.238;10.716;2022-11-20T20:54:25;0.00;99.90
21417;DHT22;10869;52.238;10.716;2022-11-20T20:56:58;0.10;99.90
21417;DHT22;10869;52.238;10.716;2022-11-20T21:02:23;0.00;99.90
21417;DHT22;10869;52.238;10.716;2022-11-20T21:04:49;0.10;99.90
21417;DHT22;10869;52.238;10.716;2022-11-20T21:07:18;0.00;99.90
21417;DHT22;10869;52.238;10.716;2022-11-20T21:09:44;0.10;99.90
21417;DHT22;10869;52.238;10.716;2022-11-20T21:15:32;0.10;99.90
21417;DHT22;10869;52.238;10.716;2022-11-20T21:17:58;0.10;99.90
21417;DHT22;10869;52.238;10.716;2022-11-20T21:20:23;0.10;99.90
21417;DHT22;10869;52.238;10.716;2022-11-20T21:28:18;0.10;99.90
21417;DHT22;10869;52.238;10.716;2022-11-20T21:30:44;0.10;99.90
21417;DHT22;10869;52.238;10.716;2022-11-20T21:36:32;0.10;99.90
21417;DHT22;10869;52.238;10.716;2022-11-20T21:38:58;0.10;99.90
21417;DHT22;10869;52.238;10.716;2022-11-20T21:41:26;0.10;99.90
21417;DHT22;10869;52.238;10.716;2022-11-20T21:47:14;0.20;99.90
21417;DHT22;10869;52.238;10.716;2022-11-20T21:49:40;0.20;99.90
21417;DHT22;10869;52.238;10.716;2022-11-20T21:52:06;0.20;99.90
21417;DHT22;10869;52.238;10.716;2022-11-20T21:54:31;0.20;99.90
21417;DHT22;10869;52.238;10.716;2022-11-20T21:57:00;0.10;99.90
21417;DHT22;10869;52.238;10.716;2022-11-20T21:59:25;0.10;99.90
21417;DHT22;10869;52.238;10.716;2022-11-20T22:01:51;0.10;99.90
21417;DHT22;10869;52.238;10.716;2022-11-20T22:04:17;0.10;99.90
21417;DHT22;10869;52.238;10.716;2022-11-20T22:06:43;0.10;99.90
21417;DHT22;10869;52.238;10.716;2022-11-20T22:09:10;0.10;99.90
21417;DHT22;10869;52.238;10.716;2022-11-20T22:11:36;0.10;99.90
21417;DHT22;10869;52.238;10.716;2022-11-20T22:14:01;0.10;99.90
21417;DHT22;10869;52.238;10.716;2022-11-20T22:16:46;0.10;99.90
21417;DHT22;10869;52.238;10.716;2022-11-20T22:19:15;0.20;99.90
21417;DHT22;10869;52.238;10.716;2022-11-20T22:21:40;0.10;99.90
21417;DHT22;10869;52.238;10.716;2022-11-20T22:24:10;0.10;99.90
21417;DHT22;10869;52.238;10.716;2022-11-20T22:26:36;0.20;99.90
21417;DHT22;10869;52.238;10.716;2022-11-20T22:29:03;0.20;99.90
21417;DHT22;10869;52.238;10.716;2022-11-20T22:31:29;0.20;99.90
21417;DHT22;10869;52.238;10.716;2022-11-20T22:33:56;0.10;99.90
21417;DHT22;10869;52.238;10.716;2022-11-20T22:36:27;0.10;99.90
21417;DHT22;10869;52.238;10.716;2022-11-20T22:38:53;0.10;99.90
21417;DHT22;10869;52.238;10.716;2022-11-20T22:41:27;0.10;99.90
21417;DHT22;10869;52.238;10.716;2022-11-20T22:43:58;0.10;99.90
21417;DHT22;10869;52.238;10.716;2022-11-20T22:46:25;0.10;99.90
21417;DHT22;10869;52.238;10.716;2022-11-20T22:48:52;0.20;99.90
21417;DHT22;10869;52.238;10.716;2022-11-20T22:51:21;0.20;99.90
21417;DHT22;10869;52.238;10.716;2022-11-20T22:53:48;0.20;99.90
21417;DHT22;10869;52.238;10.716;2022-11-20T22:56:14;0.20;99.90
21417;DHT22;10869;52.238;10.716;2022-11-20T22:58:43;0.20;99.90
21417;DHT22;10869;52.238;10.716;2022-11-20T23:03:44;0.20;99.90
21417;DHT22;10869;52.238;10.716;2022-11-20T23:06:11;0.20;99.90
21417;DHT22;10869;52.238;10.716;2022-11-20T23:08:38;0.20;99.90
21417;DHT22;10869;52.238;10.716;2022-11-20T23:11:10;0.20;99.90
21417;DHT22;10869;52.238;10.716;2022-11-20T23:13:37;0.20;99.90
21417;DHT22;10869;52.238;10.716;2022-11-20T23:16:13;0.30;99.90
21417;DHT22;10869;52.238;10.716;2022-11-20T23:18:40;0.30;99.90
21417;DHT22;10869;52.238;10.716;2022-11-20T23:21:10;0.30;99.90
21417;DHT22;10869;52.238;10.716;2022-11-20T23:23:36;0.30;99.90
21417;DHT22;10869;52.238;10.716;2022-11-20T23:26:04;0.30;99.90
21417;DHT22;10869;52.238;10.716;2022-11-20T23:28:30;0.30;99.90
21417;DHT22;10869;52.238;10.716;2022-11-20T23:30:56;0.30;99.90
21417;DHT22;10869;52.238;10.716;2022-11-20T23:33:22;0.30;99.90
21417;DHT22;10869;52.238;10.716;2022-11-20T23:35:48;0.30;99.90
21417;DHT22;10869;52.238;10.716;2022-11-20T23:38:14;0.30;99.90
21417;DHT22;10869;52.238;10.716;2022-11-20T23:40:40;0.30;99.90
21417;DHT22;10869;52.238;10.716;2022-11-20T23:43:06;0.30;99.90
21417;DHT22;10869;52.238;10.716;2022-11-20T23:45:47;0.40;99.90
21417;DHT22;10869;52.238;10.716;2022-11-20T23:48:13;0.40;99.90
21417;DHT22;10869;52.238;10.716;2022-11-20T23:50:41;0.40;99.90
21417;DHT22;10869;52.238;10.716;2022-11-20T23:53:07;0.30;99.90
21417;DHT22;10869;52.238;10.716;2022-11-20T23:55:33;0.40;99.90
21417;DHT22;10869;52.238;10.716;2022-11-20T23:58:00;0.30;99.90
